Time;durP1;ratioP1;P1;durP2;ratioP2;P2;SDS_P1;SDS_P2;PMS_P1;PMS_P2;Temp;Humidity;BMP_temperature;BMP_pressure;BME280_temperature;BME280_humidity;BME280_pressure;Samples;Min_cycle;Max_cycle;Signal;HPM_P1;HPM_P2
2024/03/26 00:02:04;;;;;;;8.80;8.02;;;;;;;;;;6260743;28;20066;-72
2024/03/26 00:05:09;;;;;;;7.80;7.00;;;;;;;;;;6288210;28;20763;-71
2024/03/26 00:08:10;;;;;;;10.52;7.75;;;;;;;;;;6269316;28;20039;-72
2024/03/26 00:11:11;;;;;;;6.47;4.07;;;;;;;;;;6269883;28;20786;-72
2024/03/26 00:14:12;;;;;;;9.65;8.85;;;;;;;;;;6290165;28;20059;-71
2024/03/26 00:17:14;;;;;;;9.07;6.85;;;;;;;;;;6296599;28;20089;-71
2024/03/26 00:20:15;;;;;;;9.02;6.75;;;;;;;;;;6290156;28;20040;-72
2024/03/26 00:23:17;;;;;;;6.90;6.28;;;;;;;;;;6286368;28;20544;-72
2024/03/26 00:26:18;;;;;;;7.78;6.82;;;;;;;;;;6288770;28;20068;-72
2024/03/26 00:29:19;;;;;;;9.40;8.52;;;;;;;;;;6291217;28;20060;-72
2024/03/26 00:32:20;;;;;;;10.18;8.02;;;;;;;;;;6256173;28;20043;-72
2024/03/26 00:35:21;;;;;;;8.40;7.70;;;;;;;;;;6276109;28;20048;-72
2024/03/26 00:38:22;;;;;;;8.10;6.13;;;;;;;;;;6283226;28;20044;-72
2024/03/26 00:41:23;;;;;;;8.32;7.43;;;;;;;;;;6252805;28;20110;-72
2024/03/26 00:44:25;;;;;;;8.50;6.68;;;;;;;;;;6248334;28;20054;-72
2024/03/26 00:47:26;;;;;;;7.35;3.63;;;;;;;;;;6272388;28;21095;-72
2024/03/26 00:50:27;;;;;;;8.27;6.95;;;;;;;;;;6281269;28;20055;-72
2024/03/26 00:53:28;;;;;;;7.53;6.75;;;;;;;;;;6299722;28;20048;-72
2024/03/26 00:56:30;;;;;;;5.60;5.03;;;;;;;;;;6296807;28;20044;-72
2024/03/26 00:59:31;;;;;;;7.82;7.15;;;;;;;;;;6278922;28;20040;-72
2024/03/26 01:02:32;;;;;;;8.95;6.38;;;;;;;;;;6298843;28;20197;-72
2024/03/26 01:05:33;;;;;;;7.20;6.60;;;;;;;;;;6296353;28;20085;-72
2024/03/26 01:08:34;;;;;;;8.30;7.50;;;;;;;;;;6297554;28;20044;-73
2024/03/26 01:11:35;;;;;;;5.55;4.38;;;;;;;;;;6294172;28;20113;-72
2024/03/26 01:14:36;;;;;;;7.32;6.20;;;;;;;;;;6270128;28;20052;-72
2024/03/26 01:17:39;;;;;;;7.15;4.78;;;;;;;;;;6279730;28;20798;-72
2024/03/26 01:20:44;;;;;;;6.85;6.35;;;;;;;;;;6288587;28;20075;-72
2024/03/26 01:23:45;;;;;;;7.57;7.00;;;;;;;;;;6261308;28;20063;-72
2024/03/26 01:26:46;;;;;;;10.75;9.95;;;;;;;;;;6300036;28;20115;-72
2024/03/26 01:29:49;;;;;;;7.25;6.45;;;;;;;;;;6285880;28;20124;-72
2024/03/26 01:32:51;;;;;;;6.95;6.28;;;;;;;;;;6292706;28;20750;-72
2024/03/26 01:35:55;;;;;;;9.60;6.03;;;;;;;;;;6278704;28;20086;-72
2024/03/26 01:38:58;;;;;;;6.95;6.28;;;;;;;;;;6268652;28;20101;-74
2024/03/26 01:42:00;;;;;;;8.30;7.57;;;;;;;;;;6271750;28;20048;-72
2024/03/26 01:45:06;;;;;;;8.75;7.38;;;;;;;;;;6274663;28;20047;-72
2024/03/26 01:48:07;;;;;;;8.75;8.10;;;;;;;;;;6335509;27;20043;-72
2024/03/26 01:51:09;;;;;;;8.25;7.30;;;;;;;;;;6257276;28;20768;-72
2024/03/26 01:54:10;;;;;;;6.80;5.78;;;;;;;;;;6269308;28;20167;-72
2024/03/26 01:57:11;;;;;;;11.73;9.80;;;;;;;;;;6277884;28;20082;-72
2024/03/26 02:00:14;;;;;;;9.10;8.20;;;;;;;;;;6293609;28;20090;-72
2024/03/26 02:03:18;;;;;;;9.77;7.95;;;;;;;;;;6292649;28;20082;-72
2024/03/26 02:06:19;;;;;;;13.95;8.18;;;;;;;;;;6297005;28;20760;-71
2024/03/26 02:09:20;;;;;;;13.18;10.10;;;;;;;;;;6266177;28;20441;-72
2024/03/26 02:12:21;;;;;;;10.38;9.38;;;;;;;;;;6289777;28;20054;-72
2024/03/26 02:15:23;;;;;;;10.77;9.68;;;;;;;;;;6301346;28;20044;-72
2024/03/26 02:18:24;;;;;;;9.77;6.78;;;;;;;;;;6284319;28;20600;-72
2024/03/26 02:21:25;;;;;;;11.82;9.18;;;;;;;;;;6294835;28;20048;-72
2024/03/26 02:24:30;;;;;;;12.30;9.25;;;;;;;;;;6278228;28;20764;-72
2024/03/26 02:27:31;;;;;;;13.05;7.32;;;;;;;;;;6284922;28;20043;-72
2024/03/26 02:30:33;;;;;;;9.98;7.63;;;;;;;;;;6294653;28;20593;-72
2024/03/26 02:33:34;;;;;;;11.15;10.05;;;;;;;;;;6260682;28;20051;-72
2024/03/26 02:36:35;;;;;;;11.20;8.55;;;;;;;;;;6260786;28;20044;-72
2024/03/26 02:39:36;;;;;;;8.57;7.68;;;;;;;;;;6290476;28;20043;-71
2024/03/26 02:42:37;;;;;;;9.93;8.93;;;;;;;;;;6288924;28;20159;-71
2024/03/26 02:45:38;;;;;;;7.80;4.53;;;;;;;;;;6288565;28;20499;-72
2024/03/26 02:48:39;;;;;;;11.43;8.68;;;;;;;;;;6289005;28;20036;-72
2024/03/26 02:51:40;;;;;;;7.03;6.32;;;;;;;;;;6307141;28;20592;-71
2024/03/26 02:54:41;;;;;;;8.60;7.80;;;;;;;;;;6277308;28;20052;-72
2024/03/26 02:57:42;;;;;;;8.75;6.65;;;;;;;;;;6286306;28;20068;-72
2024/03/26 03:00:43;;;;;;;8.07;7.28;;;;;;;;;;6292957;28;20124;-72
2024/03/26 03:03:46;;;;;;;10.80;7.70;;;;;;;;;;6257892;28;20043;-71
2024/03/26 03:06:47;;;;;;;9.70;8.82;;;;;;;;;;6272534;28;20055;-72
2024/03/26 03:09:48;;;;;;;6.47;5.88;;;;;;;;;;6293634;28;20044;-72
2024/03/26 03:12:49;;;;;;;10.77;7.95;;;;;;;;;;6306280;28;20032;-72
2024/03/26 03:15:50;;;;;;;6.93;5.90;;;;;;;;;;6292270;28;20048;-72
2024/03/26 03:18:51;;;;;;;9.02;8.15;;;;;;;;;;6289528;28;20047;-72
2024/03/26 03:21:52;;;;;;;7.63;6.93;;;;;;;;;;6271456;28;20806;-72
2024/03/26 03:24:53;;;;;;;8.23;6.50;;;;;;;;;;6272313;28;20050;-72
2024/03/26 03:27:56;;;;;;;11.43;9.50;;;;;;;;;;6321205;28;20055;-72
2024/03/26 03:30:57;;;;;;;6.65;5.00;;;;;;;;;;6273107;28;20993;-73
2024/03/26 03:33:58;;;;;;;8.38;7.57;;;;;;;;;;6300364;28;20044;-73
2024/03/26 03:36:59;;;;;;;7.85;3.75;;;;;;;;;;6260279;28;20486;-73
2024/03/26 03:40:00;;;;;;;12.25;9.00;;;;;;;;;;6261384;28;20048;-73
2024/03/26 03:43:01;;;;;;;8.60;7.38;;;;;;;;;;6242014;28;20052;-72
2024/03/26 03:46:02;;;;;;;10.50;9.52;;;;;;;;;;6273237;28;20119;-73
2024/03/26 03:49:04;;;;;;;12.32;9.38;;;;;;;;;;6272650;28;20529;-73
2024/03/26 03:52:05;;;;;;;8.45;6.90;;;;;;;;;;6289524;28;20066;-72
2024/03/26 03:55:06;;;;;;;7.57;6.80;;;;;;;;;;6303310;28;20039;-73
2024/03/26 03:58:10;;;;;;;7.95;7.22;;;;;;;;;;6291068;28;20213;-73
2024/03/26 04:01:11;;;;;;;10.52;9.75;;;;;;;;;;6288554;28;20044;-73
2024/03/26 04:04:12;;;;;;;6.82;6.22;;;;;;;;;;6263483;28;20570;-72
2024/03/26 04:07:13;;;;;;;6.55;6.05;;;;;;;;;;6278943;28;20044;-73
2024/03/26 04:10:15;;;;;;;5.03;3.75;;;;;;;;;;6257363;28;20781;-72
2024/03/26 04:13:16;;;;;;;7.30;6.13;;;;;;;;;;6288320;28;20828;-73
2024/03/26 04:16:17;;;;;;;5.90;5.40;;;;;;;;;;6284919;28;20040;-73
2024/03/26 04:19:18;;;;;;;7.63;6.93;;;;;;;;;;6286488;28;20125;-73
2024/03/26 04:22:20;;;;;;;5.95;5.45;;;;;;;;;;6271468;28;20237;-73
2024/03/26 04:25:21;;;;;;;7.70;7.07;;;;;;;;;;6298215;28;20043;-73
2024/03/26 04:28:24;;;;;;;7.47;6.78;;;;;;;;;;6293684;28;20134;-72
2024/03/26 04:31:25;;;;;;;7.78;5.78;;;;;;;;;;6304480;28;20047;-73
2024/03/26 04:34:26;;;;;;;10.32;9.52;;;;;;;;;;6276322;28;20040;-73
2024/03/26 04:37:27;;;;;;;6.65;6.20;;;;;;;;;;6287640;28;20044;-72
2024/03/26 04:40:28;;;;;;;12.38;11.15;;;;;;;;;;6279097;28;20140;-73
2024/03/26 04:43:30;;;;;;;13.52;12.23;;;;;;;;;;6300771;28;20040;-73
2024/03/26 04:46:31;;;;;;;20.83;12.00;;;;;;;;;;6301481;28;20059;-73
2024/03/26 04:49:32;;;;;;;20.52;13.68;;;;;;;;;;6292876;28;20044;-73
2024/03/26 04:52:34;;;;;;;49.72;21.45;;;;;;;;;;6291536;28;20048;-72
2024/03/26 04:55:35;;;;;;;25.88;15.55;;;;;;;;;;6309717;28;20048;-73
2024/03/26 04:58:36;;;;;;;11.23;8.57;;;;;;;;;;6301318;28;20051;-73
2024/03/26 05:01:37;;;;;;;10.82;8.40;;;;;;;;;;6288438;28;20416;-73
2024/03/26 05:04:38;;;;;;;15.93;12.20;;;;;;;;;;6275426;28;20051;-72
2024/03/26 05:07:39;;;;;;;16.95;9.00;;;;;;;;;;6293419;28;20044;-71
2024/03/26 05:10:40;;;;;;;10.30;4.93;;;;;;;;;;6290808;28;20135;-72
2024/03/26 05:13:41;;;;;;;10.43;8.15;;;;;;;;;;6294836;28;20105;-72
2024/03/26 05:16:44;;;;;;;8.10;7.30;;;;;;;;;;6272020;28;20040;-72
2024/03/26 05:19:45;;;;;;;11.13;10.00;;;;;;;;;;6287976;28;20041;-72
2024/03/26 05:22:46;;;;;;;15.98;11.50;;;;;;;;;;6294902;28;20131;-72
2024/03/26 05:25:47;;;;;;;114.38;48.13;;;;;;;;;;6293920;28;20070;-72
2024/03/26 05:28:49;;;;;;;72.43;34.03;;;;;;;;;;6289012;28;20055;-72
2024/03/26 05:31:50;;;;;;;37.83;16.80;;;;;;;;;;6272165;28;20519;-72
2024/03/26 05:34:51;;;;;;;20.42;16.05;;;;;;;;;;6274713;28;20120;-72
2024/03/26 05:37:54;;;;;;;8.70;7.85;;;;;;;;;;6305833;28;20036;-72
2024/03/26 05:40:55;;;;;;;11.27;9.65;;;;;;;;;;6297235;28;20043;-72
2024/03/26 05:43:56;;;;;;;11.30;9.00;;;;;;;;;;6277620;28;20043;-72
2024/03/26 05:46:57;;;;;;;11.82;8.40;;;;;;;;;;6290145;28;20473;-72
2024/03/26 05:49:58;;;;;;;14.38;12.88;;;;;;;;;;6288285;28;20116;-72
2024/03/26 05:53:04;;;;;;;12.27;10.35;;;;;;;;;;6287136;28;20133;-71
2024/03/26 05:56:05;;;;;;;15.27;11.93;;;;;;;;;;6293234;28;20138;-71
2024/03/26 05:59:07;;;;;;;11.02;9.57;;;;;;;;;;6280661;28;20594;-72
2024/03/26 06:02:08;;;;;;;15.52;10.00;;;;;;;;;;6291855;28;20040;-72
2024/03/26 06:05:09;;;;;;;10.48;9.18;;;;;;;;;;6265933;28;20047;-72
2024/03/26 06:08:10;;;;;;;10.20;8.60;;;;;;;;;;6283251;28;20875;-72
2024/03/26 06:11:11;;;;;;;11.85;10.85;;;;;;;;;;6289616;28;20065;-72
2024/03/26 06:14:12;;;;;;;11.60;10.55;;;;;;;;;;6291892;28;20122;-71
2024/03/26 06:17:13;;;;;;;7.88;7.07;;;;;;;;;;6274610;28;20050;-71
2024/03/26 06:20:14;;;;;;;8.70;7.88;;;;;;;;;;6276522;28;20534;-70
2024/03/26 06:23:15;;;;;;;10.18;7.35;;;;;;;;;;6287845;28;20868;-71
2024/03/26 06:26:16;;;;;;;9.98;9.02;;;;;;;;;;6277076;28;20052;-71
2024/03/26 06:29:17;;;;;;;8.70;7.20;;;;;;;;;;6313392;28;20721;-71
2024/03/26 06:32:19;;;;;;;9.65;7.18;;;;;;;;;;6294532;28;20434;-72
2024/03/26 06:35:20;;;;;;;14.00;9.80;;;;;;;;;;6279802;28;20561;-71
2024/03/26 06:38:21;;;;;;;7.97;7.18;;;;;;;;;;6285121;28;20136;-71
2024/03/26 06:41:22;;;;;;;9.73;8.73;;;;;;;;;;6288425;28;20177;-71
2024/03/26 06:44:23;;;;;;;9.55;8.63;;;;;;;;;;6271081;28;20040;-72
2024/03/26 06:47:24;;;;;;;7.65;6.55;;;;;;;;;;6272972;28;20074;-70
2024/03/26 06:50:26;;;;;;;9.63;6.78;;;;;;;;;;6312120;28;20043;-71
2024/03/26 06:53:27;;;;;;;8.73;7.35;;;;;;;;;;6289429;28;20097;-70
2024/03/26 06:56:28;;;;;;;8.82;8.10;;;;;;;;;;6271117;28;20124;-70
2024/03/26 06:59:29;;;;;;;7.32;5.97;;;;;;;;;;6288721;28;20044;-70
2024/03/26 07:02:30;;;;;;;6.30;3.65;;;;;;;;;;6289032;28;20454;-70
2024/03/26 07:05:31;;;;;;;10.75;8.73;;;;;;;;;;6274998;28;20035;-71
2024/03/26 07:08:33;;;;;;;9.00;7.25;;;;;;;;;;6291184;28;20056;-71
2024/03/26 07:11:34;;;;;;;14.00;12.50;;;;;;;;;;6290308;28;20126;-71
2024/03/26 07:14:35;;;;;;;6.75;6.15;;;;;;;;;;6273075;28;20062;-70
2024/03/26 07:17:38;;;;;;;8.48;7.40;;;;;;;;;;6294370;28;20043;-70
2024/03/26 07:20:39;;;;;;;6.88;6.20;;;;;;;;;;6285013;28;20522;-71
2024/03/26 07:23:40;;;;;;;8.10;7.30;;;;;;;;;;6275327;28;20124;-70
2024/03/26 07:26:41;;;;;;;24.42;10.93;;;;;;;;;;6270632;28;20048;-70
2024/03/26 07:29:46;;;;;;;11.35;7.15;;;;;;;;;;6290568;28;20122;-70
2024/03/26 07:32:48;;;;;;;13.30;9.63;;;;;;;;;;6253310;28;20070;-70
2024/03/26 07:35:49;;;;;;;7.93;6.78;;;;;;;;;;6290076;28;20048;-70
2024/03/26 07:38:50;;;;;;;7.60;6.90;;;;;;;;;;6286840;28;20177;-69
2024/03/26 07:41:52;;;;;;;8.13;7.30;;;;;;;;;;6265820;28;20844;-70
2024/03/26 07:44:53;;;;;;;8.20;7.50;;;;;;;;;;6290848;28;20047;-70
2024/03/26 07:47:54;;;;;;;8.13;7.43;;;;;;;;;;6285852;28;20040;-71
2024/03/26 07:50:55;;;;;;;9.57;8.63;;;;;;;;;;6291583;28;20067;-71
2024/03/26 07:53:56;;;;;;;7.57;6.97;;;;;;;;;;6266487;28;20606;-71
2024/03/26 07:56:57;;;;;;;10.50;9.60;;;;;;;;;;6276646;28;20117;-70
2024/03/26 07:59:58;;;;;;;4.97;3.40;;;;;;;;;;6271042;28;20851;-71
2024/03/26 08:02:59;;;;;;;5.10;3.53;;;;;;;;;;6274220;28;20434;-71
2024/03/26 08:06:00;;;;;;;7.75;6.32;;;;;;;;;;6293293;28;20051;-71
2024/03/26 08:09:02;;;;;;;6.53;5.70;;;;;;;;;;6287565;28;20542;-70
2024/03/26 08:12:03;;;;;;;6.40;5.80;;;;;;;;;;6266687;28;20055;-70
2024/03/26 08:15:06;;;;;;;6.72;6.10;;;;;;;;;;6288557;28;20040;-70
2024/03/26 08:18:08;;;;;;;7.15;6.38;;;;;;;;;;6274116;28;20036;-71
2024/03/26 08:21:09;;;;;;;9.73;8.93;;;;;;;;;;6291740;28;20054;-70
2024/03/26 08:24:10;;;;;;;7.53;6.93;;;;;;;;;;6306386;28;20035;-71
2024/03/26 08:27:10;;;;;;;7.25;6.55;;;;;;;;;;6281348;28;20154;-71
2024/03/26 08:30:13;;;;;;;7.97;6.30;;;;;;;;;;6283534;28;20691;-71
2024/03/26 08:33:14;;;;;;;7.72;7.03;;;;;;;;;;6273851;28;20039;-71
2024/03/26 08:36:15;;;;;;;9.15;5.75;;;;;;;;;;6290868;28;20167;-71
2024/03/26 08:39:17;;;;;;;7.38;5.60;;;;;;;;;;6281913;28;20044;-71
2024/03/26 08:42:18;;;;;;;7.05;5.70;;;;;;;;;;6275474;28;20051;-71
2024/03/26 08:45:19;;;;;;;6.25;5.63;;;;;;;;;;6272653;28;20086;-71
2024/03/26 08:48:20;;;;;;;7.10;4.85;;;;;;;;;;6272099;28;20044;-71
2024/03/26 08:51:27;;;;;;;6.32;5.72;;;;;;;;;;6298813;28;20056;-71
2024/03/26 08:54:28;;;;;;;10.93;9.23;;;;;;;;;;6314522;28;20044;-71
2024/03/26 08:57:29;;;;;;;9.18;8.02;;;;;;;;;;6292407;28;20082;-71
2024/03/26 09:00:31;;;;;;;5.68;5.18;;;;;;;;;;6291542;28;20121;-71
2024/03/26 09:03:32;;;;;;;5.40;4.90;;;;;;;;;;6292466;28;20047;-71
2024/03/26 09:06:33;;;;;;;6.53;5.93;;;;;;;;;;6276947;28;20586;-71
2024/03/26 09:09:34;;;;;;;6.68;6.05;;;;;;;;;;6290159;28;20051;-71
2024/03/26 09:12:37;;;;;;;8.10;7.47;;;;;;;;;;6299590;28;20039;-71
2024/03/26 09:15:38;;;;;;;5.72;5.22;;;;;;;;;;6299552;28;20059;-71
2024/03/26 09:18:42;;;;;;;5.68;5.18;;;;;;;;;;6292956;28;20044;-72
2024/03/26 09:21:45;;;;;;;5.43;4.93;;;;;;;;;;6307539;28;20561;-73
2024/03/26 09:24:48;;;;;;;5.00;2.70;;;;;;;;;;6275726;28;20442;-72
2024/03/26 09:27:50;;;;;;;7.40;5.53;;;;;;;;;;6308860;28;20036;-71
2024/03/26 09:30:53;;;;;;;5.53;5.03;;;;;;;;;;6315268;28;20148;-71
2024/03/26 09:33:55;;;;;;;7.35;6.85;;;;;;;;;;6279989;28;20059;-72
2024/03/26 09:36:56;;;;;;;6.28;5.78;;;;;;;;;;6291526;28;20070;-72
2024/03/26 09:39:57;;;;;;;5.85;4.90;;;;;;;;;;6274217;28;20048;-72
2024/03/26 09:43:02;;;;;;;5.47;4.82;;;;;;;;;;6291189;28;20051;-71
2024/03/26 09:46:05;;;;;;;6.68;5.05;;;;;;;;;;6291425;28;20068;-72
2024/03/26 09:49:07;;;;;;;6.10;5.50;;;;;;;;;;6290767;28;20044;-71
2024/03/26 09:52:09;;;;;;;4.13;3.72;;;;;;;;;;6280615;28;20036;-72
2024/03/26 09:55:11;;;;;;;7.18;6.68;;;;;;;;;;6272117;28;20075;-72
2024/03/26 09:58:12;;;;;;;4.15;2.35;;;;;;;;;;6256497;28;20040;-72
2024/03/26 10:01:14;;;;;;;4.40;4.00;;;;;;;;;;6293421;28;20546;-72
2024/03/26 10:04:15;;;;;;;3.63;2.55;;;;;;;;;;6271312;28;20709;-72
2024/03/26 10:07:16;;;;;;;5.38;4.88;;;;;;;;;;6290229;28;20044;-72
2024/03/26 10:10:18;;;;;;;6.22;4.95;;;;;;;;;;6276054;28;20101;-72
2024/03/26 10:13:19;;;;;;;4.63;4.22;;;;;;;;;;6294663;28;20043;-72
2024/03/26 10:16:20;;;;;;;5.13;4.53;;;;;;;;;;6290512;28;20036;-72
2024/03/26 10:19:20;;;;;;;7.53;5.68;;;;;;;;;;6295414;28;20139;-72
2024/03/26 10:22:21;;;;;;;7.22;6.53;;;;;;;;;;6288431;28;20043;-72
2024/03/26 10:25:22;;;;;;;3.92;3.53;;;;;;;;;;6290892;28;20048;-72
2024/03/26 10:28:23;;;;;;;4.50;3.35;;;;;;;;;;6289063;28;20207;-72
2024/03/26 10:31:25;;;;;;;6.70;4.20;;;;;;;;;;6249320;28;20036;-72
2024/03/26 10:34:29;;;;;;;4.90;4.40;;;;;;;;;;6261318;28;20055;-73
2024/03/26 10:37:30;;;;;;;3.08;2.13;;;;;;;;;;6269000;28;20483;-73
2024/03/26 10:40:33;;;;;;;4.95;1.83;;;;;;;;;;6257138;28;20052;-72
2024/03/26 10:43:34;;;;;;;4.05;3.63;;;;;;;;;;6286968;28;20044;-72
2024/03/26 10:46:35;;;;;;;4.35;3.92;;;;;;;;;;6291948;28;20037;-72
2024/03/26 10:49:37;;;;;;;3.88;2.63;;;;;;;;;;6290211;28;20051;-72
2024/03/26 10:52:39;;;;;;;5.25;4.38;;;;;;;;;;6271531;28;20047;-72
2024/03/26 10:55:43;;;;;;;4.57;4.18;;;;;;;;;;6287828;28;20056;-72
2024/03/26 10:58:44;;;;;;;4.40;3.17;;;;;;;;;;6285121;28;20127;-72
2024/03/26 11:01:45;;;;;;;4.22;3.83;;;;;;;;;;6270411;28;20047;-72
2024/03/26 11:04:47;;;;;;;5.70;4.65;;;;;;;;;;6275618;28;20712;-72
2024/03/26 11:07:48;;;;;;;6.25;5.65;;;;;;;;;;6285697;28;20093;-72
2024/03/26 11:11:00;;;;;;;4.88;4.07;;;;;;;;;;6289284;28;20055;-72
2024/03/26 11:14:04;;;;;;;4.60;4.13;;;;;;;;;;6287191;28;20065;-72
2024/03/26 11:17:12;;;;;;;5.43;4.82;;;;;;;;;;6319298;28;20044;-72
2024/03/26 11:20:17;;;;;;;4.78;3.58;;;;;;;;;;6285219;28;20055;-72
2024/03/26 11:23:20;;;;;;;6.65;6.05;;;;;;;;;;6281488;28;20075;-72
2024/03/26 11:26:23;;;;;;;13.48;12.07;;;;;;;;;;6291127;28;20797;-71
2024/03/26 11:29:27;;;;;;;4.97;4.22;;;;;;;;;;6254851;28;20074;-72
2024/03/26 11:32:32;;;;;;;14.88;10.13;;;;;;;;;;6291142;28;20048;-72
2024/03/26 11:35:35;;;;;;;3.40;1.80;;;;;;;;;;6271170;28;20047;-72
2024/03/26 11:38:36;;;;;;;3.22;1.55;;;;;;;;;;6271315;28;20040;-72
2024/03/26 11:41:37;;;;;;;3.95;2.65;;;;;;;;;;6293511;28;20597;-72
2024/03/26 11:44:38;;;;;;;4.80;4.40;;;;;;;;;;6268876;28;20048;-72
2024/03/26 11:47:40;;;;;;;4.72;4.22;;;;;;;;;;6288648;28;20055;-72
2024/03/26 11:50:41;;;;;;;8.48;6.55;;;;;;;;;;6287854;28;20609;-72
2024/03/26 11:53:42;;;;;;;17.50;10.65;;;;;;;;;;6293596;28;20044;-72
2024/03/26 11:56:44;;;;;;;3.83;2.13;;;;;;;;;;6252244;28;20044;-72
2024/03/26 11:59:45;;;;;;;4.57;1.90;;;;;;;;;;6287251;28;20127;-72
2024/03/26 12:02:46;;;;;;;4.05;2.97;;;;;;;;;;6288954;28;20089;-73
2024/03/26 12:05:47;;;;;;;4.45;4.05;;;;;;;;;;6286287;28;20036;-73
2024/03/26 12:08:52;;;;;;;4.47;4.07;;;;;;;;;;6273752;28;20044;-73
2024/03/26 12:11:53;;;;;;;2.60;1.40;;;;;;;;;;6283136;28;20032;-73
2024/03/26 12:14:55;;;;;;;4.85;1.35;;;;;;;;;;6291244;28;20075;-72
2024/03/26 12:17:57;;;;;;;2.55;1.25;;;;;;;;;;6270236;28;20748;-72
2024/03/26 12:20:58;;;;;;;4.03;1.38;;;;;;;;;;6286142;28;20044;-72
2024/03/26 12:23:59;;;;;;;4.28;3.88;;;;;;;;;;6270140;28;20044;-72
2024/03/26 12:27:00;;;;;;;4.13;2.35;;;;;;;;;;6287273;28;20036;-72
2024/03/26 12:30:03;;;;;;;3.38;1.77;;;;;;;;;;6285751;28;20043;-72
2024/03/26 12:33:07;;;;;;;3.75;3.38;;;;;;;;;;6290658;28;20051;-72
2024/03/26 12:36:08;;;;;;;5.90;2.60;;;;;;;;;;6287771;28;20518;-72
2024/03/26 12:39:10;;;;;;;3.80;1.30;;;;;;;;;;6265100;28;20032;-71
2024/03/26 12:42:11;;;;;;;6.85;4.85;;;;;;;;;;6270795;28;20075;-72
2024/03/26 12:45:12;;;;;;;3.30;1.23;;;;;;;;;;6294571;28;20127;-72
2024/03/26 12:48:13;;;;;;;14.23;9.73;;;;;;;;;;6291284;28;20047;-72
2024/03/26 12:51:15;;;;;;;4.80;3.22;;;;;;;;;;6291134;28;20044;-72
2024/03/26 12:54:18;;;;;;;3.55;2.00;;;;;;;;;;6288671;28;20043;-72
2024/03/26 12:57:19;;;;;;;7.32;2.63;;;;;;;;;;6288569;28;20502;-72
2024/03/26 13:00:20;;;;;;;9.85;4.50;;;;;;;;;;6277920;28;20048;-72
2024/03/26 13:03:22;;;;;;;2.78;1.73;;;;;;;;;;6292561;28;20480;-72
2024/03/26 13:06:23;;;;;;;3.95;3.22;;;;;;;;;;6286692;28;20267;-72
2024/03/26 13:09:24;;;;;;;10.98;5.57;;;;;;;;;;6287850;28;20043;-72
2024/03/26 13:12:25;;;;;;;4.07;3.67;;;;;;;;;;6298948;28;20526;-72
2024/03/26 13:15:26;;;;;;;4.57;3.20;;;;;;;;;;6273209;28;20056;-72
2024/03/26 13:18:27;;;;;;;5.38;4.25;;;;;;;;;;6285260;28;20152;-72
2024/03/26 13:21:29;;;;;;;4.90;4.55;;;;;;;;;;6287964;28;20052;-72
2024/03/26 13:24:30;;;;;;;3.53;3.22;;;;;;;;;;6287015;28;20071;-72
2024/03/26 13:27:32;;;;;;;4.20;3.42;;;;;;;;;;6291519;28;20105;-72
2024/03/26 13:30:33;;;;;;;3.47;3.17;;;;;;;;;;6291801;28;20036;-72
2024/03/26 13:33:34;;;;;;;4.22;3.42;;;;;;;;;;6285171;28;20048;-72
2024/03/26 13:36:35;;;;;;;8.80;8.10;;;;;;;;;;6275372;28;20044;-72
2024/03/26 13:39:36;;;;;;;6.07;5.47;;;;;;;;;;6293287;28;20070;-72
2024/03/26 13:42:37;;;;;;;5.32;4.15;;;;;;;;;;6289154;28;20043;-72
2024/03/26 13:45:48;;;;;;;5.50;4.05;;;;;;;;;;6255173;28;20040;-72
2024/03/26 13:48:49;;;;;;;6.05;4.28;;;;;;;;;;6291319;28;20055;-72
2024/03/26 13:51:50;;;;;;;6.28;5.25;;;;;;;;;;6289016;28;20052;-72
2024/03/26 13:54:51;;;;;;;6.57;5.88;;;;;;;;;;6262906;28;20085;-72
2024/03/26 13:57:52;;;;;;;6.32;5.82;;;;;;;;;;6288459;28;20089;-72
2024/03/26 14:00:54;;;;;;;5.75;5.03;;;;;;;;;;6268521;28;20059;-72
2024/03/26 14:03:55;;;;;;;4.47;4.07;;;;;;;;;;6288936;28;20044;-72
2024/03/26 14:06:57;;;;;;;11.48;8.77;;;;;;;;;;6270621;28;20048;-72
2024/03/26 14:09:58;;;;;;;5.75;4.15;;;;;;;;;;6288628;28;20055;-72
2024/03/26 14:12:59;;;;;;;6.97;6.05;;;;;;;;;;6288234;28;20044;-72
2024/03/26 14:16:00;;;;;;;7.03;6.22;;;;;;;;;;6272138;28;20078;-72
2024/03/26 14:19:01;;;;;;;5.65;4.78;;;;;;;;;;6283931;28;20051;-72
2024/03/26 14:22:03;;;;;;;5.18;4.68;;;;;;;;;;6287693;28;20040;-72
2024/03/26 14:25:12;;;;;;;6.85;5.28;;;;;;;;;;6287053;28;20735;-71
2024/03/26 14:28:13;;;;;;;5.88;5.18;;;;;;;;;;6289318;28;20166;-72
2024/03/26 14:31:17;;;;;;;6.15;4.40;;;;;;;;;;6266280;28;20057;-72
2024/03/26 14:34:18;;;;;;;10.00;5.50;;;;;;;;;;6272204;28;20035;-72
2024/03/26 14:37:21;;;;;;;10.18;4.22;;;;;;;;;;6282163;28;20867;-71
2024/03/26 14:40:22;;;;;;;18.08;11.50;;;;;;;;;;6304798;28;20044;-71
2024/03/26 14:43:23;;;;;;;23.40;14.65;;;;;;;;;;6290421;28;20518;-71
2024/03/26 14:46:24;;;;;;;27.98;15.20;;;;;;;;;;6284059;28;20064;-72
2024/03/26 14:49:25;;;;;;;32.53;16.95;;;;;;;;;;6288135;28;20028;-70
2024/03/26 14:52:26;;;;;;;20.48;14.73;;;;;;;;;;6291264;28;20036;-71
2024/03/26 14:55:27;;;;;;;17.63;14.75;;;;;;;;;;6274542;28;20094;-71
2024/03/26 14:58:29;;;;;;;17.90;11.10;;;;;;;;;;6287622;28;20056;-70
2024/03/26 15:01:30;;;;;;;40.35;16.27;;;;;;;;;;6287842;28;20040;-72
2024/03/26 15:04:31;;;;;;;36.95;15.50;;;;;;;;;;6292510;28;20600;-71
2024/03/26 15:07:32;;;;;;;60.42;19.35;;;;;;;;;;6287843;28;20751;-72
2024/03/26 15:10:33;;;;;;;52.03;15.02;;;;;;;;;;6286286;28;20504;-70
2024/03/26 15:13:34;;;;;;;19.85;11.63;;;;;;;;;;6269158;28;20051;-72
2024/03/26 15:16:35;;;;;;;12.77;8.40;;;;;;;;;;6289433;28;20114;-71
2024/03/26 15:19:36;;;;;;;9.95;7.90;;;;;;;;;;6311258;28;20044;-70
2024/03/26 15:22:37;;;;;;;8.57;7.78;;;;;;;;;;6287855;28;20117;-70
2024/03/26 15:25:39;;;;;;;9.48;6.40;;;;;;;;;;6285964;28;20036;-71
2024/03/26 15:32:00;;;;;;;12.35;11.40;;;;;;;;;;6318816;28;20055;-71
2024/03/26 15:35:02;;;;;;;11.52;8.20;;;;;;;;;;6284419;28;20059;-71
2024/03/26 15:38:05;;;;;;;8.05;6.65;;;;;;;;;;6264948;28;20086;-71
2024/03/26 15:41:07;;;;;;;10.00;6.20;;;;;;;;;;6270803;28;20044;-72
2024/03/26 15:44:08;;;;;;;8.55;6.18;;;;;;;;;;6285958;28;20048;-71
2024/03/26 15:47:09;;;;;;;6.75;6.15;;;;;;;;;;6291122;28;20090;-71
2024/03/26 15:50:10;;;;;;;8.82;6.97;;;;;;;;;;6286866;28;20126;-71
2024/03/26 15:53:13;;;;;;;7.53;6.72;;;;;;;;;;6288306;28;20055;-72
2024/03/26 15:56:15;;;;;;;9.00;5.97;;;;;;;;;;6287787;28;20052;-71
2024/03/26 15:59:16;;;;;;;8.63;7.07;;;;;;;;;;6267148;28;20129;-70
2024/03/26 16:02:18;;;;;;;7.45;6.13;;;;;;;;;;6301092;28;20052;-71
2024/03/26 16:05:19;;;;;;;8.23;6.05;;;;;;;;;;6285966;28;20087;-70
2024/03/26 16:08:21;;;;;;;7.63;4.13;;;;;;;;;;6269580;28;20430;-71
2024/03/26 16:11:23;;;;;;;17.40;14.57;;;;;;;;;;6260990;28;20045;-70
2024/03/26 16:14:25;;;;;;;27.02;16.73;;;;;;;;;;6286321;28;20224;-70
2024/03/26 16:17:26;;;;;;;10.88;8.20;;;;;;;;;;6291725;28;20486;-70
2024/03/26 16:20:28;;;;;;;18.52;14.48;;;;;;;;;;6275826;28;20060;-70
2024/03/26 16:23:30;;;;;;;16.05;13.02;;;;;;;;;;6292812;28;20055;-70
2024/03/26 16:26:31;;;;;;;12.10;9.75;;;;;;;;;;6298581;28;20113;-70
2024/03/26 16:29:32;;;;;;;12.13;9.68;;;;;;;;;;6289854;28;20056;-70
2024/03/26 16:32:33;;;;;;;10.73;8.45;;;;;;;;;;6291413;28;20071;-70
2024/03/26 16:35:35;;;;;;;12.43;9.85;;;;;;;;;;6282970;28;20063;-71
2024/03/26 16:38:40;;;;;;;14.05;10.60;;;;;;;;;;6281327;28;20036;-71
2024/03/26 16:41:43;;;;;;;9.75;7.45;;;;;;;;;;6286519;28;20574;-71
2024/03/26 16:44:45;;;;;;;9.98;8.93;;;;;;;;;;6288027;28;20036;-72
2024/03/26 16:47:46;;;;;;;15.15;9.23;;;;;;;;;;6291784;28;20040;-72
2024/03/26 16:50:47;;;;;;;29.25;18.83;;;;;;;;;;6295209;28;20066;-72
2024/03/26 16:53:48;;;;;;;20.10;15.43;;;;;;;;;;6256543;28;20118;-72
2024/03/26 16:56:49;;;;;;;28.50;24.80;;;;;;;;;;6287177;28;20106;-72
2024/03/26 16:59:50;;;;;;;10.45;7.85;;;;;;;;;;6274825;28;20060;-72
2024/03/26 17:02:51;;;;;;;9.45;8.02;;;;;;;;;;6273774;28;20036;-72
2024/03/26 17:05:52;;;;;;;9.23;4.57;;;;;;;;;;6275094;28;20308;-72
2024/03/26 17:08:53;;;;;;;8.85;7.78;;;;;;;;;;6305446;28;20747;-72
2024/03/26 17:11:54;;;;;;;8.13;6.95;;;;;;;;;;6292124;28;20125;-72
2024/03/26 17:14:56;;;;;;;6.25;5.65;;;;;;;;;;6291702;28;20052;-71
2024/03/26 17:17:57;;;;;;;6.47;5.88;;;;;;;;;;6311504;28;20036;-72
2024/03/26 17:20:59;;;;;;;8.18;7.45;;;;;;;;;;6286716;28;20036;-72
2024/03/26 17:24:02;;;;;;;7.63;6.72;;;;;;;;;;6324998;28;20051;-71
2024/03/26 17:27:03;;;;;;;6.93;6.22;;;;;;;;;;6288151;28;20044;-72
2024/03/26 17:30:05;;;;;;;6.95;6.30;;;;;;;;;;6288309;28;20040;-71
2024/03/26 17:33:06;;;;;;;6.68;6.03;;;;;;;;;;6293810;28;20044;-72
2024/03/26 17:36:07;;;;;;;7.50;6.53;;;;;;;;;;6272837;28;20059;-71
2024/03/26 17:39:09;;;;;;;6.28;5.57;;;;;;;;;;6291983;28;20028;-71
2024/03/26 17:42:11;;;;;;;7.97;7.28;;;;;;;;;;6289607;28;20112;-71
2024/03/26 17:45:12;;;;;;;7.43;6.53;;;;;;;;;;6276619;28;20213;-71
2024/03/26 17:48:13;;;;;;;9.52;7.43;;;;;;;;;;6291009;28;20043;-71
2024/03/26 17:51:14;;;;;;;8.27;7.15;;;;;;;;;;6277130;28;20050;-71
2024/03/26 17:54:15;;;;;;;9.48;4.15;;;;;;;;;;6287259;28;20048;-71
2024/03/26 17:57:16;;;;;;;6.93;6.10;;;;;;;;;;6289883;28;20081;-71
2024/03/26 18:00:18;;;;;;;7.50;6.53;;;;;;;;;;6286365;28;20167;-71
2024/03/26 18:03:19;;;;;;;5.70;3.60;;;;;;;;;;6291796;28;20449;-72
2024/03/26 18:06:20;;;;;;;10.85;9.73;;;;;;;;;;6274662;28;20047;-71